الصفحة الرئيسية
METAR-TAF:

METAR-TAF

مطار :

Creech_Air_Force_Base

إنديان سبرينغز, نيفادا, الولايات المتحدة

دائرة عرض: 36-32N, خط طول: 115-54W, ارتفاع: 952 متر

مراقبة الطقس الحالي

تاريخ ووقت الإصدار 49 دقيقة قبل الساعة 08:58UTC
رياح هادئة
درجة الحرارة 15°درجة مئوية
الرطوبة 15%
ضغط 1022 hPa
الرؤية: 16.1 كم
سماء صافية

METAR: KINS 290858Z AUTO 00000KT 10SM CLR 15/M11 A3017 RMK AO2 SLP178 T01541111 $

زمن: 02:47 (09:47 UTC)

توقعات

تاريخ ووقت الإصدار 4ساعات و 54 دقيقة قبل الساعة 04:53UTC
التوقعات صالحة من29 الساعة 05 UTC إلى 30 الساعة 11 UTC
ريح 6 عقدةمن اتجاهات متغيرة
الرؤية 10 كم أو أكثر
سماء صافية

TAF: KINS 290453Z 2905/3011 VRB06KT 9999 SKC QNH3007INS TX34/2923Z TN13/2912Z

أرصاد الطقس والتوقعات من أكثر من 4000 مطار (تقارير الطقس للمطار METAR والتنبؤ بالطقس بالمطارTAF).

المحطات المتاحة هي النقط الصفراء والحمراء على الخريطة.

حرك المؤشر فوق النقطة لمعرفة اسم المحطة.

ثم انقر لمعرفة أرصاد وتوقعات الطقس.

لتغيير الخارطة: اضغط على الأزرار الخضراء مع رمز الصليب الأسود للتكبير. على الزر الأخضر مع شرطة للتصغير، أو على الأسهم الخضراء للخرائط المجاورة.


METAR-TAF: